Pagina principale
METAR-TAF:

METAR-TAF

Aeroporti :

Alghero, Italia

Aeroporto di Alghero-Fertilia

latitudine: 40-38N, longitudine: 008-17E, altezza: 23 m

Osservazione

Il bollettino è stato emesso 22 minuti fa, alle 07:50 UTC
Vento 2 kt da direzioni variabili
Temperature 25°C
Umidità 57%
Pressione 1019 hPa
Visibilità 10 km o più
nessuna nube inferiore a 1500 m e nessun cumulonembo

METAR: LIEA 270750Z VRB02KT CAVOK 25/16 Q1019

Ora: 10:12 (08:12 UTC)

Previsione

Il bollettino è stato emesso 3 ore e 12 minuti fa, alle 05:00 UTC
Previsione valida dal 27 alle 06 UTC al 28 alle 06 UTC
Vento 5 kt da direzioni variabili
Visibilità 10 km o più
nessuna nube inferiore a 1500 m e nessun cumulonembo
Evoluzione graduale
dal 27 alle 10 UTC al 27 alle 12 UTC
Vento 10 kt da ovest
Evoluzione graduale
dal 27 alle 19 UTC al 27 alle 21 UTC
Vento 7 kt da nord-est

TAF: LIEA 270500Z 2706/2806 VRB05KT CAVOK BECMG 2710/2712 28010KT BECMG 2719/2721 05007KT

Osservazioni e previsioni meteorologiche di più di 4000 aeroporti (messaggi METAR e TAF).

Le stazioni disponibili sono rappresentate dai dischi gialli e rossi sulla carta.

Puntare il mouse per vedere il nome della stazione.

Clicca sopra per visualizzare le osservazioni e previsioni meteorologiche.

Per cambiare la mappa : fare clic sui pulsanti verdi con una croce nera per ingrandire, il pulsante verde con un trattino per diminuire, o sulla freccia verde per le mappe adiacenti.


METAR-TAF: